Pacific Titan — WCZ6844 — position and weather

sailwx.info

Track history (hours):
 
Tides and Currents Weather Stations Pressure Air Temp Water Temp Dewpoint Dewpoint Depression Visibility Wind Speed Wind Dir Waves Ship Positions

Pacific Titan

Owner: WESTERN TOWBOAT CO, SEATTLE, WA. More information available from US FCC via Universal Licensing System and Coast Guard Vessel Documentation Center.

Last reported at 2014-Nov-28 08:06 UTC. Time now 2014-Nov-28 10:57 UTC.
Position N 50°28' W 126°10'.

Type: Tow > 200 m length. MMSI: 338855000.

Date/timePositionNaut miles runAvg speedWind from/ knotsBaromVisibWave heightAir tempDewpointWater temp
2014-Nov-28 08:06N 50°28' W 126°10'7 9.4
2014-Nov-28 07:25N 50°30' W 126°20'8 9.3
2014-Nov-28 06:33N 50°31' W 126°32'1 1.2
2014-Nov-28 05:33N 50°30' W 126°30'68 7.2
2014-Nov-27 20:05N 49°53' W 125°01'4 7.6
2014-Nov-27 19:33N 49°51' W 124°56'7 7.2
2014-Nov-27 18:33N 49°46' W 124°48'1511.8
2014-Nov-27 17:18N 49°37' W 124°30'910.7
2014-Nov-27 16:30N 49°33' W 124°18'1111.0
2014-Nov-27 15:33N 49°27' W 124°05'1210.7
2014-Nov-27 14:27N 49°20' W 123°50'910.6
2014-Nov-27 13:33N 49°15' W 123°38'1111.0
2014-Nov-27 12:33N 49°07' W 123°26'1110.8
2014-Nov-27 11:33N 49°00' W 123°14'1010.3
2014-Nov-27 10:33N 48°53' W 123°02'9 9.0
2014-Nov-27 09:33N 48°47' W 122°51'9 8.6
2014-Nov-27 08:33N 48°41' W 122°43'7 7.3
2014-Nov-27 07:33N 48°34' W 122°45'7 7.5
2014-Nov-27 06:33N 48°26' W 122°44'10 9.1
2014-Nov-27 05:27N 48°16' W 122°47'1010.5
2014-Nov-27 04:32N 48°08' W 122°40'111.3
2014-Nov-27 04:27N 48°07' W 122°39'1011.6
2014-Nov-27 03:33N 47°58' W 122°33'111.3
2014-Nov-27 03:27N 47°57' W 122°32'9 9.7
2014-Nov-27 02:33N 47°49' W 122°27'510.2
2014-Nov-27 02:04N 47°44' W 122°26'510.0
2014-Nov-27 01:33N 47°39' W 122°27'110.0
2014-Nov-27 01:30N 47°39' W 122°27'6 6.6
2014-Nov-27 00:35N 47°34' W 122°21'0 5.8
2014-Nov-27 00:33N 47°34' W 122°21'1 0.6
2014-Nov-26 23:33N 47°33' W 122°21'0 0.0
2014-Nov-26 23:30N 47°33' W 122°21'0 0.4
2014-Nov-26 22:33N 47°33' W 122°20'0 0.1
2014-Nov-26 22:30N 47°33' W 122°20'0 0.0
2014-Nov-26 21:33N 47°33' W 122°20'0 0.0
2014-Nov-26 21:29N 47°33' W 122°20'0 0.0
2014-Nov-26 20:33N 47°33' W 122°20'0 0.0
2014-Nov-26 20:29N 47°33' W 122°20'0 0.0
2014-Nov-26 19:33N 47°33' W 122°20'0 0.0
2014-Nov-26 19:29N 47°33' W 122°20'0 0.0
2014-Nov-26 18:34N 47°33' W 122°20'0 0.0
2014-Nov-26 18:33N 47°33' W 122°20'0 0.1
2014-Nov-26 17:32N 47°33' W 122°20'0 0.0
2014-Nov-26 17:29N 47°33' W 122°20'0 0.0
2014-Nov-26 16:32N 47°33' W 122°20'0 0.0
2014-Nov-26 15:30N 47°33' W 122°20'0 0.0
2014-Nov-26 14:32N 47°33' W 122°20'0 0.0
2014-Nov-26 14:29N 47°33' W 122°20'0 0.0
2014-Nov-26 13:34N 47°33' W 122°20'0 0.0
2014-Nov-26 13:33N 47°33' W 122°20'0 0.0
2014-Nov-26 12:34N 47°33' W 122°20'0 0.0
2014-Nov-26 12:33N 47°33' W 122°20'0 0.0
2014-Nov-26 11:33N 47°33' W 122°20'0 0.0
2014-Nov-26 11:33N 47°33' W 122°20'0 0.0
2014-Nov-26 10:33N 47°33' W 122°20'0 0.0
2014-Nov-26 10:33N 47°33' W 122°20'0 0.0
2014-Nov-26 09:33N 47°33' W 122°20'0 0.0
2014-Nov-26 09:33N 47°33' W 122°20'0 0.0
2014-Nov-26 08:33N 47°33' W 122°20'0 0.0
2014-Nov-26 08:33N 47°33' W 122°20'0 0.0
2014-Nov-26 07:33N 47°33' W 122°20'0 0.5
2014-Nov-26 07:33N 47°33' W 122°20'0 0.0
2014-Nov-26 06:46N 47°33' W 122°20'0 0.0
2014-Nov-26 03:51N 47°33' W 122°20'0 0.0
2014-Nov-26 03:33N 47°33' W 122°20'0 0.2
2014-Nov-26 03:31N 47°33' W 122°20'0 0.0
2014-Nov-26 02:33N 47°33' W 122°20'0 0.0
2014-Nov-26 02:31N 47°33' W 122°20'0 0.0
2014-Nov-26 01:33N 47°33' W 122°20'0 0.0
2014-Nov-26 01:21N 47°33' W 122°20'0 0.0
2014-Nov-26 00:33N 47°33' W 122°20'0 0.0
2014-Nov-26 00:30N 47°33' W 122°20'0 0.0
2014-Nov-25 23:33N 47°33' W 122°20'0 0.1
2014-Nov-25 23:30N 47°33' W 122°20'0 0.0
2014-Nov-25 22:33N 47°33' W 122°20'0 0.0
2014-Nov-25 22:30N 47°33' W 122°20'0 0.0
2014-Nov-25 21:33N 47°33' W 122°20'0 0.1
2014-Nov-25 21:30N 47°33' W 122°20'0 0.0
2014-Nov-25 20:28N 47°33' W 122°20'0 0.0
2014-Nov-25 20:09N 47°33' W 122°20'0 0.0
2014-Nov-25 19:24N 47°33' W 122°20'0 0.0
2014-Nov-25 19:24N 47°33' W 122°20'0 0.0
2014-Nov-25 18:33N 47°33' W 122°20'0 0.0
2014-Nov-25 18:33N 47°33' W 122°20'0 0.0
2014-Nov-25 17:33N 47°33' W 122°20'0 0.0
2014-Nov-25 17:33N 47°33' W 122°20'0 0.0
2014-Nov-25 16:33N 47°33' W 122°20'0 0.1
2014-Nov-25 16:28N 47°33' W 122°20'0 0.0
2014-Nov-25 15:33N 47°33' W 122°20'0 0.0
2014-Nov-25 15:32N 47°33' W 122°20'0 0.0
2014-Nov-25 14:33N 47°33' W 122°20'0 0.0
2014-Nov-25 14:33N 47°33' W 122°20'0 0.0
2014-Nov-25 13:33N 47°33' W 122°20'0 0.0
2014-Nov-25 13:33N 47°33' W 122°20'0 0.0
2014-Nov-25 12:33N 47°33' W 122°20'0 0.4
2014-Nov-25 12:33N 47°33' W 122°20'0 0.0
2014-Nov-25 11:33N 47°33' W 122°20'0 0.0
2014-Nov-25 11:33N 47°33' W 122°20'0 0.0
2014-Nov-25 10:33N 47°33' W 122°20'0 0.1
2014-Nov-25 10:28N 47°33' W 122°20'0 0.0
2014-Nov-25 09:33N 47°33' W 122°20'0 0.3
2014-Nov-25 09:32N 47°33' W 122°20'0 0.0
2014-Nov-25 08:33N 47°33' W 122°20'0 0.2
2014-Nov-25 08:32N 47°33' W 122°20'0 0.0
2014-Nov-25 07:33N 47°33' W 122°20'0 0.2
2014-Nov-25 07:32N 47°33' W 122°20'0 0.0
2014-Nov-25 07:01N 47°33' W 122°20'0 0.0
2014-Nov-25 06:33N 47°33' W 122°20'0 0.0
2014-Nov-25 05:33N 47°33' W 122°20'0 0.1
2014-Nov-25 05:31N 47°33' W 122°20'0 0.0
2014-Nov-25 04:33N 47°33' W 122°20'0 0.0
2014-Nov-25 04:31N 47°33' W 122°20'0 0.0
2014-Nov-25 03:33N 47°33' W 122°20'0 0.0
2014-Nov-25 03:31N 47°33' W 122°20'0 0.0
2014-Nov-25 02:33N 47°33' W 122°20'0 0.0
2014-Nov-25 02:31N 47°33' W 122°20'0 0.0
2014-Nov-25 01:33N 47°33' W 122°20'0 0.1
2014-Nov-25 01:31N 47°33' W 122°20'0 0.0
2014-Nov-25 00:33N 47°33' W 122°20'0 0.0
2014-Nov-25 00:31N 47°33' W 122°20'0 0.0
2014-Nov-24 23:33N 47°33' W 122°20'0 0.0
2014-Nov-24 23:30N 47°33' W 122°20'0 0.0
2014-Nov-24 22:33N 47°33' W 122°20'0 0.1
2014-Nov-24 22:31N 47°33' W 122°20'0 0.0
2014-Nov-24 21:33N 47°33' W 122°20'0 0.0
2014-Nov-24 21:31N 47°33' W 122°20'0 0.0
2014-Nov-24 20:33N 47°33' W 122°20'0 0.0
2014-Nov-24 20:30N 47°33' W 122°20'0 0.0
2014-Nov-24 19:33N 47°33' W 122°20'0 0.0
2014-Nov-24 19:30N 47°33' W 122°20'0 0.0
2014-Nov-24 18:33N 47°33' W 122°20'0 0.0
2014-Nov-24 18:30N 47°33' W 122°20'0 0.0
2014-Nov-24 17:33N 47°33' W 122°20'0 0.1
2014-Nov-24 17:29N 47°33' W 122°20'0 0.0
2014-Nov-24 16:34N 47°33' W 122°20'0 0.0
2014-Nov-24 16:33N 47°33' W 122°20'0 0.0
2014-Nov-24 15:33N 47°33' W 122°20'0 0.0
2014-Nov-24 14:33N 47°33' W 122°20'0 0.4
2014-Nov-24 14:32N 47°33' W 122°20'0 0.0
2014-Nov-24 13:33N 47°33' W 122°20'0 0.0
2014-Nov-24 13:33N 47°33' W 122°20'0 0.0
2014-Nov-24 12:33N 47°33' W 122°20'0 0.0
2014-Nov-24 12:33N 47°33' W 122°20'0 0.0
2014-Nov-24 11:33N 47°33' W 122°20'0 0.0
2014-Nov-24 11:33N 47°33' W 122°20'0 0.0
2014-Nov-24 10:33N 47°33' W 122°20'0 0.4
2014-Nov-24 10:33N 47°33' W 122°20'0 0.0
2014-Nov-24 09:33N 47°33' W 122°20'0 0.0
2014-Nov-24 09:33N 47°33' W 122°20'0 0.0
2014-Nov-24 08:33N 47°33' W 122°20'0 0.4
2014-Nov-24 08:33N 47°33' W 122°20'0 0.0
2014-Nov-24 07:33N 47°33' W 122°20'0 0.0
2014-Nov-24 07:32N 47°33' W 122°20'0 0.0
2014-Nov-24 06:35N 47°33' W 122°20'0 0.0
2014-Nov-24 06:33N 47°33' W 122°20'0 0.0
2014-Nov-24 05:33N 47°33' W 122°20'0 0.0
2014-Nov-24 05:30N 47°33' W 122°20'0 0.0
2014-Nov-24 04:33N 47°33' W 122°20'0 0.0
2014-Nov-24 04:30N 47°33' W 122°20'0 0.0
2014-Nov-24 03:32N 47°33' W 122°20'0 0.0
2014-Nov-24 03:22N 47°33' W 122°20'0 0.0
2014-Nov-24 02:33N 47°33' W 122°20'0 0.0
2014-Nov-24 02:33N 47°33' W 122°20'0 0.0
2014-Nov-24 01:33N 47°33' W 122°20'0 0.0
2014-Nov-24 01:33N 47°33' W 122°20'0 0.0
2014-Nov-24 00:33N 47°33' W 122°20'0 0.0
2014-Nov-24 00:32N 47°33' W 122°20'0 0.0
2014-Nov-23 23:33N 47°33' W 122°20'0 0.0
2014-Nov-23 23:32N 47°33' W 122°20'0 0.0
2014-Nov-23 22:33N 47°33' W 122°20'0 0.0
2014-Nov-23 22:04N 47°33' W 122°20'0 0.0
2014-Nov-23 21:33N 47°33' W 122°20'0 0.0
2014-Nov-23 21:12N 47°33' W 122°20'0 0.0
2014-Nov-23 20:31N 47°33' W 122°20'0 0.0
2014-Nov-23 20:05N 47°33' W 122°20'0 0.0
2014-Nov-23 19:29N 47°33' W 122°20'0 0.0
2014-Nov-23 19:13N 47°33' W 122°20'0 0.0
2014-Nov-23 18:32N 47°33' W 122°20'0 0.0
2014-Nov-23 18:31N 47°33' W 122°20'0 0.0
2014-Nov-23 17:33N 47°33' W 122°20'0 0.0
2014-Nov-23 16:49N 47°33' W 122°20'0 0.0
2014-Nov-23 16:30N 47°33' W 122°20'0 0.1
2014-Nov-23 16:23N 47°33' W 122°20'0 0.4
2014-Nov-23 15:33N 47°33' W 122°21'0 0.0
2014-Nov-23 15:33N 47°33' W 122°21'3 2.6
2014-Nov-23 14:33N 47°36' W 122°22'0 3.6
2014-Nov-23 14:28N 47°36' W 122°22'4 4.2
2014-Nov-23 13:33N 47°38' W 122°27'0 0.0
2014-Nov-23 13:33N 47°38' W 122°27'6 5.6
2014-Nov-23 12:33N 47°43' W 122°28'0 0.0
2014-Nov-23 12:33N 47°43' W 122°28'3 3.5
2014-Nov-23 11:33N 47°47' W 122°27'0 4.1
2014-Nov-23 11:33N 47°47' W 122°27'3 3.3
2014-Nov-23 10:33N 47°50' W 122°28'0 1.5
2014-Nov-23 10:33N 47°50' W 122°28'4 4.5
2014-Nov-23 09:33N 47°54' W 122°30'0 2.9
2014-Nov-23 09:33N 47°54' W 122°30'6 6.5
2014-Nov-23 08:33N 47°59' W 122°37'0 4.5
2014-Nov-23 08:32N 47°59' W 122°37'6 6.4
2014-Nov-23 07:33N 48°05' W 122°40'7 6.6
2014-Nov-23 06:28N 48°10' W 122°47'0 6.4
2014-Nov-23 06:27N 48°10' W 122°47'5 5.7
2014-Nov-23 05:33N 48°15' W 122°49'9 8.7
2014-Nov-23 04:33N 48°24' W 122°45'1212.5
2014-Nov-23 03:33N 48°36' W 122°46'10 9.8
2014-Nov-23 02:33N 48°46' W 122°50'1010.3
2014-Nov-23 01:33N 48°51' W 123°03'1010.2
2014-Nov-23 00:33N 48°58' W 123°15'9 9.4
2014-Nov-22 23:33N 49°04' W 123°25'9 9.1
2014-Nov-22 22:33N 49°10' W 123°35'10 9.8
2014-Nov-22 21:32N 49°16' W 123°48'10 9.6
2014-Nov-22 20:33N 49°23' W 123°58'11 9.7
2014-Nov-22 19:24N 49°30' W 124°11'8 9.8
2014-Nov-22 18:33N 49°34' W 124°23'10 9.3
2014-Nov-22 17:32N 49°39' W 124°35'10 9.3
2014-Nov-22 16:24N 49°46' W 124°48'8 9.7
2014-Nov-22 15:33N 49°51' W 124°58'65 7.1
2014-Nov-22 06:26N 50°29' W 126°19'8 8.6
2014-Nov-22 05:30N 50°30' W 126°31'8 7.8
2014-Nov-22 04:31N 50°34' W 126°41'10 9.2
2014-Nov-22 03:25N 50°41' W 126°53'8 9.2
2014-Nov-22 02:33N 50°46' W 127°03'9 8.5
2014-Nov-22 01:33N 50°51' W 127°14'8 8.5
2014-Nov-22 00:33N 50°55' W 127°26'8 8.1
2014-Nov-21 23:33N 50°60' W 127°36'9 8.8
2014-Nov-21 22:33N 51°06' W 127°46'16 8.0
2014-Nov-21 20:31N 51°22' W 127°53'9 8.7
2014-Nov-21 19:33N 51°30' W 127°52'188 7.8
2014-Nov-20 19:33N 54°13' W 130°29'9 8.8
2014-Nov-20 18:33N 54°21' W 130°36'10 9.7
2014-Nov-20 17:31N 54°30' W 130°42'  
Track history (hours):
 
Tides and Currents Weather Stations Pressure Air Temp Water Temp Dewpoint Dewpoint Depression Visibility Wind Speed Wind Dir Waves Ship Positions

Pacific Titan

Owner: WESTERN TOWBOAT CO, SEATTLE, WA. More information available from US FCC via Universal Licensing System and Coast Guard Vessel Documentation Center.

Last reported at 2014-Nov-28 08:06 UTC. Time now 2014-Nov-28 10:57 UTC.
Position N 50°28' W 126°10'.

Type: Tow > 200 m length. MMSI: 338855000.

Date/timePositionNaut miles runAvg speedWind from/ knotsBaromVisibWave heightAir tempDewpointWater temp
2014-Nov-28 08:06N 50°28' W 126°10'7 9.4
2014-Nov-28 07:25N 50°30' W 126°20'8 9.3
2014-Nov-28 06:33N 50°31' W 126°32'1 1.2
2014-Nov-28 05:33N 50°30' W 126°30'68 7.2
2014-Nov-27 20:05N 49°53' W 125°01'4 7.6
2014-Nov-27 19:33N 49°51' W 124°56'7 7.2
2014-Nov-27 18:33N 49°46' W 124°48'1511.8
2014-Nov-27 17:18N 49°37' W 124°30'910.7
2014-Nov-27 16:30N 49°33' W 124°18'1111.0
2014-Nov-27 15:33N 49°27' W 124°05'1210.7
2014-Nov-27 14:27N 49°20' W 123°50'910.6
2014-Nov-27 13:33N 49°15' W 123°38'1111.0
2014-Nov-27 12:33N 49°07' W 123°26'1110.8
2014-Nov-27 11:33N 49°00' W 123°14'1010.3
2014-Nov-27 10:33N 48°53' W 123°02'9 9.0
2014-Nov-27 09:33N 48°47' W 122°51'9 8.6
2014-Nov-27 08:33N 48°41' W 122°43'7 7.3
2014-Nov-27 07:33N 48°34' W 122°45'7 7.5
2014-Nov-27 06:33N 48°26' W 122°44'10 9.1
2014-Nov-27 05:27N 48°16' W 122°47'1010.5
2014-Nov-27 04:32N 48°08' W 122°40'111.3
2014-Nov-27 04:27N 48°07' W 122°39'1011.6
2014-Nov-27 03:33N 47°58' W 122°33'111.3
2014-Nov-27 03:27N 47°57' W 122°32'9 9.7
2014-Nov-27 02:33N 47°49' W 122°27'510.2
2014-Nov-27 02:04N 47°44' W 122°26'510.0
2014-Nov-27 01:33N 47°39' W 122°27'110.0
2014-Nov-27 01:30N 47°39' W 122°27'6 6.6
2014-Nov-27 00:35N 47°34' W 122°21'0 5.8
2014-Nov-27 00:33N 47°34' W 122°21'1 0.6
2014-Nov-26 23:33N 47°33' W 122°21'0 0.0
2014-Nov-26 23:30N 47°33' W 122°21'0 0.4
2014-Nov-26 22:33N 47°33' W 122°20'0 0.1
2014-Nov-26 22:30N 47°33' W 122°20'0 0.0
2014-Nov-26 21:33N 47°33' W 122°20'0 0.0
2014-Nov-26 21:29N 47°33' W 122°20'0 0.0
2014-Nov-26 20:33N 47°33' W 122°20'0 0.0
2014-Nov-26 20:29N 47°33' W 122°20'0 0.0
2014-Nov-26 19:33N 47°33' W 122°20'0 0.0
2014-Nov-26 19:29N 47°33' W 122°20'0 0.0
2014-Nov-26 18:34N 47°33' W 122°20'0 0.0
2014-Nov-26 18:33N 47°33' W 122°20'0 0.1
2014-Nov-26 17:32N 47°33' W 122°20'0 0.0
2014-Nov-26 17:29N 47°33' W 122°20'0 0.0
2014-Nov-26 16:32N 47°33' W 122°20'0 0.0
2014-Nov-26 15:30N 47°33' W 122°20'0 0.0
2014-Nov-26 14:32N 47°33' W 122°20'0 0.0
2014-Nov-26 14:29N 47°33' W 122°20'0 0.0
2014-Nov-26 13:34N 47°33' W 122°20'0 0.0
2014-Nov-26 13:33N 47°33' W 122°20'0 0.0
2014-Nov-26 12:34N 47°33' W 122°20'0 0.0
2014-Nov-26 12:33N 47°33' W 122°20'0 0.0
2014-Nov-26 11:33N 47°33' W 122°20'0 0.0
2014-Nov-26 11:33N 47°33' W 122°20'0 0.0
2014-Nov-26 10:33N 47°33' W 122°20'0 0.0
2014-Nov-26 10:33N 47°33' W 122°20'0 0.0
2014-Nov-26 09:33N 47°33' W 122°20'0 0.0
2014-Nov-26 09:33N 47°33' W 122°20'0 0.0
2014-Nov-26 08:33N 47°33' W 122°20'0 0.0
2014-Nov-26 08:33N 47°33' W 122°20'0 0.0
2014-Nov-26 07:33N 47°33' W 122°20'0 0.5
2014-Nov-26 07:33N 47°33' W 122°20'0 0.0
2014-Nov-26 06:46N 47°33' W 122°20'0 0.0
2014-Nov-26 03:51N 47°33' W 122°20'0 0.0
2014-Nov-26 03:33N 47°33' W 122°20'0 0.2
2014-Nov-26 03:31N 47°33' W 122°20'0 0.0
2014-Nov-26 02:33N 47°33' W 122°20'0 0.0
2014-Nov-26 02:31N 47°33' W 122°20'0 0.0
2014-Nov-26 01:33N 47°33' W 122°20'0 0.0
2014-Nov-26 01:21N 47°33' W 122°20'0 0.0
2014-Nov-26 00:33N 47°33' W 122°20'0 0.0
2014-Nov-26 00:30N 47°33' W 122°20'0 0.0
2014-Nov-25 23:33N 47°33' W 122°20'0 0.1
2014-Nov-25 23:30N 47°33' W 122°20'0 0.0
2014-Nov-25 22:33N 47°33' W 122°20'0 0.0
2014-Nov-25 22:30N 47°33' W 122°20'0 0.0
2014-Nov-25 21:33N 47°33' W 122°20'0 0.1
2014-Nov-25 21:30N 47°33' W 122°20'0 0.0
2014-Nov-25 20:28N 47°33' W 122°20'0 0.0
2014-Nov-25 20:09N 47°33' W 122°20'0 0.0
2014-Nov-25 19:24N 47°33' W 122°20'0 0.0
2014-Nov-25 19:24N 47°33' W 122°20'0 0.0
2014-Nov-25 18:33N 47°33' W 122°20'0 0.0
2014-Nov-25 18:33N 47°33' W 122°20'0 0.0
2014-Nov-25 17:33N 47°33' W 122°20'0 0.0
2014-Nov-25 17:33N 47°33' W 122°20'0 0.0
2014-Nov-25 16:33N 47°33' W 122°20'0 0.1
2014-Nov-25 16:28N 47°33' W 122°20'0 0.0
2014-Nov-25 15:33N 47°33' W 122°20'0 0.0
2014-Nov-25 15:32N 47°33' W 122°20'0 0.0
2014-Nov-25 14:33N 47°33' W 122°20'0 0.0
2014-Nov-25 14:33N 47°33' W 122°20'0 0.0
2014-Nov-25 13:33N 47°33' W 122°20'0 0.0
2014-Nov-25 13:33N 47°33' W 122°20'0 0.0
2014-Nov-25 12:33N 47°33' W 122°20'0 0.4
2014-Nov-25 12:33N 47°33' W 122°20'0 0.0
2014-Nov-25 11:33N 47°33' W 122°20'0 0.0
2014-Nov-25 11:33N 47°33' W 122°20'0 0.0
2014-Nov-25 10:33N 47°33' W 122°20'0 0.1
2014-Nov-25 10:28N 47°33' W 122°20'0 0.0
2014-Nov-25 09:33N 47°33' W 122°20'0 0.3
2014-Nov-25 09:32N 47°33' W 122°20'0 0.0
2014-Nov-25 08:33N 47°33' W 122°20'0 0.2
2014-Nov-25 08:32N 47°33' W 122°20'0 0.0
2014-Nov-25 07:33N 47°33' W 122°20'0 0.2
2014-Nov-25 07:32N 47°33' W 122°20'0 0.0
2014-Nov-25 07:01N 47°33' W 122°20'0 0.0
2014-Nov-25 06:33N 47°33' W 122°20'0 0.0
2014-Nov-25 05:33N 47°33' W 122°20'0 0.1
2014-Nov-25 05:31N 47°33' W 122°20'0 0.0
2014-Nov-25 04:33N 47°33' W 122°20'0 0.0
2014-Nov-25 04:31N 47°33' W 122°20'0 0.0
2014-Nov-25 03:33N 47°33' W 122°20'0 0.0
2014-Nov-25 03:31N 47°33' W 122°20'0 0.0
2014-Nov-25 02:33N 47°33' W 122°20'0 0.0
2014-Nov-25 02:31N 47°33' W 122°20'0 0.0
2014-Nov-25 01:33N 47°33' W 122°20'0 0.1
2014-Nov-25 01:31N 47°33' W 122°20'0 0.0
2014-Nov-25 00:33N 47°33' W 122°20'0 0.0
2014-Nov-25 00:31N 47°33' W 122°20'0 0.0
2014-Nov-24 23:33N 47°33' W 122°20'0 0.0
2014-Nov-24 23:30N 47°33' W 122°20'0 0.0
2014-Nov-24 22:33N 47°33' W 122°20'0 0.1
2014-Nov-24 22:31N 47°33' W 122°20'0 0.0
2014-Nov-24 21:33N 47°33' W 122°20'0 0.0
2014-Nov-24 21:31N 47°33' W 122°20'0 0.0
2014-Nov-24 20:33N 47°33' W 122°20'0 0.0
2014-Nov-24 20:30N 47°33' W 122°20'0 0.0
2014-Nov-24 19:33N 47°33' W 122°20'0 0.0
2014-Nov-24 19:30N 47°33' W 122°20'0 0.0
2014-Nov-24 18:33N 47°33' W 122°20'0 0.0
2014-Nov-24 18:30N 47°33' W 122°20'0 0.0
2014-Nov-24 17:33N 47°33' W 122°20'0 0.1
2014-Nov-24 17:29N 47°33' W 122°20'0 0.0
2014-Nov-24 16:34N 47°33' W 122°20'0 0.0
2014-Nov-24 16:33N 47°33' W 122°20'0 0.0
2014-Nov-24 15:33N 47°33' W 122°20'0 0.0
2014-Nov-24 14:33N 47°33' W 122°20'0 0.4
2014-Nov-24 14:32N 47°33' W 122°20'0 0.0
2014-Nov-24 13:33N 47°33' W 122°20'0 0.0
2014-Nov-24 13:33N 47°33' W 122°20'0 0.0
2014-Nov-24 12:33N 47°33' W 122°20'0 0.0
2014-Nov-24 12:33N 47°33' W 122°20'0 0.0
2014-Nov-24 11:33N 47°33' W 122°20'0 0.0
2014-Nov-24 11:33N 47°33' W 122°20'0 0.0
2014-Nov-24 10:33N 47°33' W 122°20'0 0.4
2014-Nov-24 10:33N 47°33' W 122°20'0 0.0
2014-Nov-24 09:33N 47°33' W 122°20'0 0.0
2014-Nov-24 09:33N 47°33' W 122°20'0 0.0
2014-Nov-24 08:33N 47°33' W 122°20'0 0.4
2014-Nov-24 08:33N 47°33' W 122°20'0 0.0
2014-Nov-24 07:33N 47°33' W 122°20'0 0.0
2014-Nov-24 07:32N 47°33' W 122°20'0 0.0
2014-Nov-24 06:35N 47°33' W 122°20'0 0.0
2014-Nov-24 06:33N 47°33' W 122°20'0 0.0
2014-Nov-24 05:33N 47°33' W 122°20'0 0.0
2014-Nov-24 05:30N 47°33' W 122°20'0 0.0
2014-Nov-24 04:33N 47°33' W 122°20'0 0.0
2014-Nov-24 04:30N 47°33' W 122°20'0 0.0
2014-Nov-24 03:32N 47°33' W 122°20'0 0.0
2014-Nov-24 03:22N 47°33' W 122°20'0 0.0
2014-Nov-24 02:33N 47°33' W 122°20'0 0.0
2014-Nov-24 02:33N 47°33' W 122°20'0 0.0
2014-Nov-24 01:33N 47°33' W 122°20'0 0.0
2014-Nov-24 01:33N 47°33' W 122°20'0 0.0
2014-Nov-24 00:33N 47°33' W 122°20'0 0.0
2014-Nov-24 00:32N 47°33' W 122°20'0 0.0
2014-Nov-23 23:33N 47°33' W 122°20'0 0.0
2014-Nov-23 23:32N 47°33' W 122°20'0 0.0
2014-Nov-23 22:33N 47°33' W 122°20'0 0.0
2014-Nov-23 22:04N 47°33' W 122°20'0 0.0
2014-Nov-23 21:33N 47°33' W 122°20'0 0.0
2014-Nov-23 21:12N 47°33' W 122°20'0 0.0
2014-Nov-23 20:31N 47°33' W 122°20'0 0.0
2014-Nov-23 20:05N 47°33' W 122°20'0 0.0
2014-Nov-23 19:29N 47°33' W 122°20'0 0.0
2014-Nov-23 19:13N 47°33' W 122°20'0 0.0
2014-Nov-23 18:32N 47°33' W 122°20'0 0.0
2014-Nov-23 18:31N 47°33' W 122°20'0 0.0
2014-Nov-23 17:33N 47°33' W 122°20'0 0.0
2014-Nov-23 16:49N 47°33' W 122°20'0 0.0
2014-Nov-23 16:30N 47°33' W 122°20'0 0.1
2014-Nov-23 16:23N 47°33' W 122°20'0 0.4
2014-Nov-23 15:33N 47°33' W 122°21'0 0.0
2014-Nov-23 15:33N 47°33' W 122°21'3 2.6
2014-Nov-23 14:33N 47°36' W 122°22'0 3.6
2014-Nov-23 14:28N 47°36' W 122°22'4 4.2
2014-Nov-23 13:33N 47°38' W 122°27'0 0.0
2014-Nov-23 13:33N 47°38' W 122°27'6 5.6
2014-Nov-23 12:33N 47°43' W 122°28'0 0.0
2014-Nov-23 12:33N 47°43' W 122°28'3 3.5
2014-Nov-23 11:33N 47°47' W 122°27'0 4.1
2014-Nov-23 11:33N 47°47' W 122°27'3 3.3
2014-Nov-23 10:33N 47°50' W 122°28'0 1.5
2014-Nov-23 10:33N 47°50' W 122°28'4 4.5
2014-Nov-23 09:33N 47°54' W 122°30'0 2.9
2014-Nov-23 09:33N 47°54' W 122°30'6 6.5
2014-Nov-23 08:33N 47°59' W 122°37'0 4.5
2014-Nov-23 08:32N 47°59' W 122°37'6 6.4
2014-Nov-23 07:33N 48°05' W 122°40'7 6.6
2014-Nov-23 06:28N 48°10' W 122°47'0 6.4
2014-Nov-23 06:27N 48°10' W 122°47'5 5.7
2014-Nov-23 05:33N 48°15' W 122°49'9 8.7
2014-Nov-23 04:33N 48°24' W 122°45'1212.5
2014-Nov-23 03:33N 48°36' W 122°46'10 9.8
2014-Nov-23 02:33N 48°46' W 122°50'1010.3
2014-Nov-23 01:33N 48°51' W 123°03'1010.2
2014-Nov-23 00:33N 48°58' W 123°15'9 9.4
2014-Nov-22 23:33N 49°04' W 123°25'9 9.1
2014-Nov-22 22:33N 49°10' W 123°35'10 9.8
2014-Nov-22 21:32N 49°16' W 123°48'10 9.6
2014-Nov-22 20:33N 49°23' W 123°58'11 9.7
2014-Nov-22 19:24N 49°30' W 124°11'8 9.8
2014-Nov-22 18:33N 49°34' W 124°23'10 9.3
2014-Nov-22 17:32N 49°39' W 124°35'10 9.3
2014-Nov-22 16:24N 49°46' W 124°48'8 9.7
2014-Nov-22 15:33N 49°51' W 124°58'65 7.1
2014-Nov-22 06:26N 50°29' W 126°19'8 8.6
2014-Nov-22 05:30N 50°30' W 126°31'8 7.8
2014-Nov-22 04:31N 50°34' W 126°41'10 9.2
2014-Nov-22 03:25N 50°41' W 126°53'8 9.2
2014-Nov-22 02:33N 50°46' W 127°03'9 8.5
2014-Nov-22 01:33N 50°51' W 127°14'8 8.5
2014-Nov-22 00:33N 50°55' W 127°26'8 8.1
2014-Nov-21 23:33N 50°60' W 127°36'9 8.8
2014-Nov-21 22:33N 51°06' W 127°46'16 8.0
2014-Nov-21 20:31N 51°22' W 127°53'9 8.7
2014-Nov-21 19:33N 51°30' W 127°52'188 7.8
2014-Nov-20 19:33N 54°13' W 130°29'9 8.8
2014-Nov-20 18:33N 54°21' W 130°36'10 9.7
2014-Nov-20 17:31N 54°30' W 130°42'  

Dump ship's entire track history